sensor_id;sensor_type;location;lat;lon;timestamp;pressure;altitude;pressure_sealevel;temperature;humidity
34658;BME280;20865;43.312;27.152;2022-09-09T00:02:21;100628.91;;;25.26;41.49
34658;BME280;20865;43.312;27.152;2022-09-09T00:07:42;100635.66;;;25.16;41.79
34658;BME280;20865;43.312;27.152;2022-09-09T00:15:39;100636.43;;;25.12;42.20
34658;BME280;20865;43.312;27.152;2022-09-09T00:18:17;100641.03;;;25.12;42.32
34658;BME280;20865;43.312;27.152;2022-09-09T00:20:55;100635.94;;;25.07;42.33
34658;BME280;20865;43.312;27.152;2022-09-09T00:23:48;100633.47;;;24.99;42.63
34658;BME280;20865;43.312;27.152;2022-09-09T00:29:03;100632.76;;;24.97;42.74
34658;BME280;20865;43.312;27.152;2022-09-09T00:31:30;100636.56;;;25.00;42.58
34658;BME280;20865;43.312;27.152;2022-09-09T00:34:16;100624.67;;;24.95;42.21
34658;BME280;20865;43.312;27.152;2022-09-09T00:36:44;100621.33;;;24.97;42.22
34658;BME280;20865;43.312;27.152;2022-09-09T00:42:18;100621.59;;;24.88;42.08
34658;BME280;20865;43.312;27.152;2022-09-09T00:44:58;100620.13;;;24.79;42.26
34658;BME280;20865;43.312;27.152;2022-09-09T00:47:51;100606.63;;;24.77;42.40
34658;BME280;20865;43.312;27.152;2022-09-09T00:50:01;100617.69;;;24.76;42.54
34658;BME280;20865;43.312;27.152;2022-09-09T00:52:34;100617.19;;;24.76;42.57
34658;BME280;20865;43.312;27.152;2022-09-09T00:57:35;100615.58;;;24.74;42.76
34658;BME280;20865;43.312;27.152;2022-09-09T01:00:29;100615.94;;;24.75;42.90
34658;BME280;20865;43.312;27.152;2022-09-09T01:05:58;100616.69;;;24.77;43.02
34658;BME280;20865;43.312;27.152;2022-09-09T01:11:32;100617.80;;;24.74;43.24
34658;BME280;20865;43.312;27.152;2022-09-09T01:16:33;100603.88;;;24.83;43.32
34658;BME280;20865;43.312;27.152;2022-09-09T01:19:01;100604.23;;;24.84;43.46
34658;BME280;20865;43.312;27.152;2022-09-09T01:21:56;100587.20;;;24.86;43.51
34658;BME280;20865;43.312;27.152;2022-09-09T01:24:40;100592.05;;;24.88;43.54
34658;BME280;20865;43.312;27.152;2022-09-09T01:27:08;100603.32;;;24.94;43.35
34658;BME280;20865;43.312;27.152;2022-09-09T01:29:36;100596.34;;;24.96;43.44
34658;BME280;20865;43.312;27.152;2022-09-09T01:32:39;100599.08;;;24.96;43.40
34658;BME280;20865;43.312;27.152;2022-09-09T01:37:43;100597.59;;;24.98;43.26
34658;BME280;20865;43.312;27.152;2022-09-09T01:40:11;100599.20;;;25.00;43.21
34658;BME280;20865;43.312;27.152;2022-09-09T01:42:39;100604.28;;;24.99;43.22
34658;BME280;20865;43.312;27.152;2022-09-09T01:45:07;100609.89;;;24.98;43.18
34658;BME280;20865;43.312;27.152;2022-09-09T01:47:36;100604.42;;;24.98;43.22
34658;BME280;20865;43.312;27.152;2022-09-09T01:50:04;100603.32;;;24.94;43.20
34658;BME280;20865;43.312;27.152;2022-09-09T01:52:34;100602.57;;;24.92;43.29
34658;BME280;20865;43.312;27.152;2022-09-09T01:55:04;100605.72;;;24.82;43.49
34658;BME280;20865;43.312;27.152;2022-09-09T01:57:38;100611.22;;;24.77;43.66
34658;BME280;20865;43.312;27.152;2022-09-09T02:00:07;100607.23;;;24.81;43.69
34658;BME280;20865;43.312;27.152;2022-09-09T02:05:41;100607.79;;;24.58;44.00
34658;BME280;20865;43.312;27.152;2022-09-09T02:08:15;100610.56;;;24.46;44.16
34658;BME280;20865;43.312;27.152;2022-09-09T02:11:03;100605.85;;;24.32;44.43
34658;BME280;20865;43.312;27.152;2022-09-09T02:13:32;100611.55;;;24.23;44.87
34658;BME280;20865;43.312;27.152;2022-09-09T02:16:10;100603.89;;;24.11;45.00
34658;BME280;20865;43.312;27.152;2022-09-09T02:18:47;100601.17;;;24.17;44.95
34658;BME280;20865;43.312;27.152;2022-09-09T02:21:14;100607.73;;;24.09;45.17
34658;BME280;20865;43.312;27.152;2022-09-09T02:23:44;100603.88;;;24.22;44.93
34658;BME280;20865;43.312;27.152;2022-09-09T02:26:15;100603.65;;;24.20;45.16
34658;BME280;20865;43.312;27.152;2022-09-09T02:28:46;100601.78;;;24.15;45.34
34658;BME280;20865;43.312;27.152;2022-09-09T02:31:17;100604.52;;;24.20;45.32
34658;BME280;20865;43.312;27.152;2022-09-09T02:33:56;100610.83;;;24.21;45.23
34658;BME280;20865;43.312;27.152;2022-09-09T02:36:19;100614.54;;;24.25;45.14
34658;BME280;20865;43.312;27.152;2022-09-09T02:38:48;100602.89;;;24.18;45.33
34658;BME280;20865;43.312;27.152;2022-09-09T02:41:20;100596.33;;;24.20;45.25
34658;BME280;20865;43.312;27.152;2022-09-09T02:43:48;100602.51;;;24.28;45.07
34658;BME280;20865;43.312;27.152;2022-09-09T02:49:38;100605.85;;;24.37;44.90
34658;BME280;20865;43.312;27.152;2022-09-09T02:54:19;100609.58;;;24.31;44.89
34658;BME280;20865;43.312;27.152;2022-09-09T02:56:47;100603.27;;;24.41;44.96
34658;BME280;20865;43.312;27.152;2022-09-09T02:59:13;100596.55;;;24.45;44.87
34658;BME280;20865;43.312;27.152;2022-09-09T03:01:41;100598.77;;;24.52;44.60
34658;BME280;20865;43.312;27.152;2022-09-09T03:04:10;100597.37;;;24.57;44.62
34658;BME280;20865;43.312;27.152;2022-09-09T03:06:38;100597.22;;;24.64;44.39
34658;BME280;20865;43.312;27.152;2022-09-09T03:09:05;100601.70;;;24.65;44.38
34658;BME280;20865;43.312;27.152;2022-09-09T03:11:34;100593.67;;;24.53;44.30
34658;BME280;20865;43.312;27.152;2022-09-09T03:14:02;100588.92;;;24.60;44.02
34658;BME280;20865;43.312;27.152;2022-09-09T03:16:30;100586.19;;;24.60;43.95
34658;BME280;20865;43.312;27.152;2022-09-09T03:19:00;100587.91;;;24.61;43.81
34658;BME280;20865;43.312;27.152;2022-09-09T03:21:28;100581.48;;;24.57;43.86
34658;BME280;20865;43.312;27.152;2022-09-09T03:23:55;100580.98;;;24.57;43.87
34658;BME280;20865;43.312;27.152;2022-09-09T03:26:23;100586.45;;;24.57;43.87
34658;BME280;20865;43.312;27.152;2022-09-09T03:28:51;100587.09;;;24.55;43.91
34658;BME280;20865;43.312;27.152;2022-09-09T03:31:19;100588.82;;;24.51;43.98
34658;BME280;20865;43.312;27.152;2022-09-09T03:33:47;100594.78;;;24.50;43.97
34658;BME280;20865;43.312;27.152;2022-09-09T03:36:15;100597.52;;;24.50;44.03
34658;BME280;20865;43.312;27.152;2022-09-09T03:38:42;100594.06;;;24.48;44.06
34658;BME280;20865;43.312;27.152;2022-09-09T03:41:10;100598.02;;;24.38;44.34
34658;BME280;20865;43.312;27.152;2022-09-09T03:43:39;100595.94;;;24.31;44.52
34658;BME280;20865;43.312;27.152;2022-09-09T03:46:08;100591.59;;;24.22;44.88
34658;BME280;20865;43.312;27.152;2022-09-09T03:48:35;100592.23;;;24.20;45.11
34658;BME280;20865;43.312;27.152;2022-09-09T03:51:03;100587.39;;;24.24;44.88
34658;BME280;20865;43.312;27.152;2022-09-09T03:53:31;100593.56;;;24.26;44.87
34658;BME280;20865;43.312;27.152;2022-09-09T03:55:59;100592.59;;;24.21;44.96
34658;BME280;20865;43.312;27.152;2022-09-09T03:58:27;100581.67;;;24.27;44.77
34658;BME280;20865;43.312;27.152;2022-09-09T04:01:04;100577.80;;;24.30;44.71
34658;BME280;20865;43.312;27.152;2022-09-09T04:03:28;100582.50;;;24.39;44.59
34658;BME280;20865;43.312;27.152;2022-09-09T04:05:58;100582.14;;;24.38;44.53
34658;BME280;20865;43.312;27.152;2022-09-09T04:08:27;100581.28;;;24.43;44.30
34658;BME280;20865;43.312;27.152;2022-09-09T04:10:55;100577.30;;;24.47;44.24
34658;BME280;20865;43.312;27.152;2022-09-09T04:13:24;100579.05;;;24.48;44.20
34658;BME280;20865;43.312;27.152;2022-09-09T04:15:54;100580.27;;;24.44;44.28
34658;BME280;20865;43.312;27.152;2022-09-09T04:18:23;100589.33;;;24.50;44.27
34658;BME280;20865;43.312;27.152;2022-09-09T04:20:52;100590.19;;;24.51;44.23
34658;BME280;20865;43.312;27.152;2022-09-09T04:23:20;100594.03;;;24.54;44.22
34658;BME280;20865;43.312;27.152;2022-09-09T04:25:51;100588.31;;;24.51;44.30
34658;BME280;20865;43.312;27.152;2022-09-09T04:28:21;100590.69;;;24.56;44.18
34658;BME280;20865;43.312;27.152;2022-09-09T04:30:50;100581.38;;;24.58;44.05
34658;BME280;20865;43.312;27.152;2022-09-09T04:33:18;100579.52;;;24.53;44.19
34658;BME280;20865;43.312;27.152;2022-09-09T04:35:49;100580.48;;;24.58;44.26
34658;BME280;20865;43.312;27.152;2022-09-09T04:38:18;100591.15;;;24.61;44.30
34658;BME280;20865;43.312;27.152;2022-09-09T04:40:49;100592.16;;;24.60;44.30
34658;BME280;20865;43.312;27.152;2022-09-09T04:43:18;100601.72;;;24.54;44.60
34658;BME280;20865;43.312;27.152;2022-09-09T04:45:47;100597.11;;;24.60;44.63
34658;BME280;20865;43.312;27.152;2022-09-09T04:48:15;100597.61;;;24.65;44.67
34658;BME280;20865;43.312;27.152;2022-09-09T04:50:45;100594.84;;;24.71;44.57
34658;BME280;20865;43.312;27.152;2022-09-09T04:53:12;100602.38;;;24.79;44.28
34658;BME280;20865;43.312;27.152;2022-09-09T04:55:40;100601.20;;;24.92;44.08
34658;BME280;20865;43.312;27.152;2022-09-09T04:58:08;100599.92;;;25.02;44.01
34658;BME280;20865;43.312;27.152;2022-09-09T05:00:36;100598.67;;;25.12;43.93
34658;BME280;20865;43.312;27.152;2022-09-09T05:03:06;100597.59;;;25.24;43.90
34658;BME280;20865;43.312;27.152;2022-09-09T05:05:35;100597.04;;;25.36;43.81
34658;BME280;20865;43.312;27.152;2022-09-09T05:08:07;100598.92;;;25.51;43.65
34658;BME280;20865;43.312;27.152;2022-09-09T05:10:37;100600.79;;;25.65;43.49
34658;BME280;20865;43.312;27.152;2022-09-09T05:13:06;100601.83;;;25.80;43.45
34658;BME280;20865;43.312;27.152;2022-09-09T05:15:33;100603.72;;;25.95;43.34
34658;BME280;20865;43.312;27.152;2022-09-09T05:18:02;100595.32;;;26.11;43.20
34658;BME280;20865;43.312;27.152;2022-09-09T05:20:30;100600.00;;;26.30;43.02
34658;BME280;20865;43.312;27.152;2022-09-09T05:22:58;100602.16;;;26.52;42.98
34658;BME280;20865;43.312;27.152;2022-09-09T05:25:25;100591.95;;;26.73;42.38
34658;BME280;20865;43.312;27.152;2022-09-09T05:27:53;100598.09;;;27.00;42.28
34658;BME280;20865;43.312;27.152;2022-09-09T05:30:21;100599.73;;;27.26;41.27
34658;BME280;20865;43.312;27.152;2022-09-09T05:32:51;100599.20;;;27.46;41.32
34658;BME280;20865;43.312;27.152;2022-09-09T05:35:18;100562.39;;;27.72;40.54
34658;BME280;20865;43.312;27.152;2022-09-09T05:37:47;100594.40;;;27.91;40.07
34658;BME280;20865;43.312;27.152;2022-09-09T05:40:14;100592.82;;;28.02;38.78
34658;BME280;20865;43.312;27.152;2022-09-09T05:42:42;100603.50;;;28.33;38.60
34658;BME280;20865;43.312;27.152;2022-09-09T05:45:10;100597.76;;;28.54;38.64
34658;BME280;20865;43.312;27.152;2022-09-09T05:47:37;100591.07;;;28.70;37.70
34658;BME280;20865;43.312;27.152;2022-09-09T05:50:06;100596.08;;;28.93;37.77
34658;BME280;20865;43.312;27.152;2022-09-09T05:52:34;100585.27;;;29.09;36.61
34658;BME280;20865;43.312;27.152;2022-09-09T05:55:01;100584.49;;;29.21;35.99
34658;BME280;20865;43.312;27.152;2022-09-09T05:57:30;100586.02;;;29.41;36.41
34658;BME280;20865;43.312;27.152;2022-09-09T05:59:58;100592.55;;;29.62;36.05
34658;BME280;20865;43.312;27.152;2022-09-09T06:02:26;100590.38;;;29.74;34.77
34658;BME280;20865;43.312;27.152;2022-09-09T06:04:54;100593.09;;;29.96;35.25
34658;BME280;20865;43.312;27.152;2022-09-09T06:07:22;100595.05;;;30.16;34.72
34658;BME280;20865;43.312;27.152;2022-09-09T06:09:49;100600.66;;;30.32;34.86
34658;BME280;20865;43.312;27.152;2022-09-09T06:12:17;100601.72;;;30.44;34.66
34658;BME280;20865;43.312;27.152;2022-09-09T06:14:47;100596.93;;;30.54;33.44
34658;BME280;20865;43.312;27.152;2022-09-09T06:17:15;100595.41;;;30.68;33.73
34658;BME280;20865;43.312;27.152;2022-09-09T06:19:44;100589.44;;;30.84;33.68
34658;BME280;20865;43.312;27.152;2022-09-09T06:22:11;100592.22;;;30.97;33.23
34658;BME280;20865;43.312;27.152;2022-09-09T06:24:39;100586.17;;;31.05;32.71
34658;BME280;20865;43.312;27.152;2022-09-09T06:27:08;100574.80;;;31.13;31.93
34658;BME280;20865;43.312;27.152;2022-09-09T06:29:37;100574.28;;;31.25;32.60
34658;BME280;20865;43.312;27.152;2022-09-09T06:32:04;100569.48;;;31.31;31.79
34658;BME280;20865;43.312;27.152;2022-09-09T06:34:34;100581.19;;;31.34;30.94
34658;BME280;20865;43.312;27.152;2022-09-09T06:37:03;100583.78;;;31.39;30.75
34658;BME280;20865;43.312;27.152;2022-09-09T06:39:31;100579.59;;;31.55;30.90
34658;BME280;20865;43.312;27.152;2022-09-09T06:41:58;100577.02;;;31.54;30.25
34658;BME280;20865;43.312;27.152;2022-09-09T06:44:26;100575.45;;;31.64;29.83
34658;BME280;20865;43.312;27.152;2022-09-09T06:46:53;100581.84;;;31.60;29.32
34658;BME280;20865;43.312;27.152;2022-09-09T06:49:21;100574.20;;;31.78;29.67
34658;BME280;20865;43.312;27.152;2022-09-09T06:51:49;100580.59;;;31.75;28.74
34658;BME280;20865;43.312;27.152;2022-09-09T06:54:18;100582.52;;;31.70;28.94
34658;BME280;20865;43.312;27.152;2022-09-09T06:56:46;100575.08;;;31.87;29.06
34658;BME280;20865;43.312;27.152;2022-09-09T06:59:15;100583.16;;;31.76;28.39
34658;BME280;20865;43.312;27.152;2022-09-09T07:01:44;100585.75;;;31.94;28.90
34658;BME280;20865;43.312;27.152;2022-09-09T07:04:13;100580.02;;;32.00;28.05
34658;BME280;20865;43.312;27.152;2022-09-09T07:06:43;100572.66;;;32.23;28.20
34658;BME280;20865;43.312;27.152;2022-09-09T07:09:14;100564.20;;;32.21;27.56
34658;BME280;20865;43.312;27.152;2022-09-09T07:11:47;100560.20;;;32.28;27.37
34658;BME280;20865;43.312;27.152;2022-09-09T07:14:15;100565.52;;;32.41;27.23
34658;BME280;20865;43.312;27.152;2022-09-09T07:16:44;100569.99;;;32.46;26.99
34658;BME280;20865;43.312;27.152;2022-09-09T07:19:13;100569.82;;;32.40;26.82
34658;BME280;20865;43.312;27.152;2022-09-09T07:21:41;100575.69;;;32.45;26.43
34658;BME280;20865;43.312;27.152;2022-09-09T07:24:09;100574.38;;;32.64;27.07
34658;BME280;20865;43.312;27.152;2022-09-09T07:26:38;100577.86;;;32.58;26.41
34658;BME280;20865;43.312;27.152;2022-09-09T07:29:07;100572.69;;;32.55;26.62
34658;BME280;20865;43.312;27.152;2022-09-09T07:31:36;100578.66;;;32.31;25.39
34658;BME280;20865;43.312;27.152;2022-09-09T07:34:04;100577.39;;;32.46;25.48
34658;BME280;20865;43.312;27.152;2022-09-09T07:36:39;100581.88;;;32.78;25.82
34658;BME280;20865;43.312;27.152;2022-09-09T07:39:06;100577.94;;;32.91;26.41
34658;BME280;20865;43.312;27.152;2022-09-09T07:41:36;100586.89;;;33.02;25.47
34658;BME280;20865;43.312;27.152;2022-09-09T07:44:07;100596.93;;;33.22;26.06
34658;BME280;20865;43.312;27.152;2022-09-09T07:46:36;100580.65;;;33.23;25.51
34658;BME280;20865;43.312;27.152;2022-09-09T07:49:06;100578.24;;;33.24;24.75
34658;BME280;20865;43.312;27.152;2022-09-09T07:51:36;100564.95;;;33.38;25.07
34658;BME280;20865;43.312;27.152;2022-09-09T07:54:07;100563.93;;;33.16;24.60
34658;BME280;20865;43.312;27.152;2022-09-09T07:56:35;100553.57;;;33.33;24.78
34658;BME280;20865;43.312;27.152;2022-09-09T07:59:04;100558.45;;;33.31;24.66
34658;BME280;20865;43.312;27.152;2022-09-09T08:01:35;100550.94;;;33.20;24.31
34658;BME280;20865;43.312;27.152;2022-09-09T08:04:06;100561.73;;;33.11;25.23
34658;BME280;20865;43.312;27.152;2022-09-09T08:06:40;100545.69;;;33.44;24.79
34658;BME280;20865;43.312;27.152;2022-09-09T08:09:09;100552.02;;;33.68;24.36
34658;BME280;20865;43.312;27.152;2022-09-09T08:11:38;100547.33;;;33.98;25.01
34658;BME280;20865;43.312;27.152;2022-09-09T08:14:08;100537.05;;;34.07;24.05
34658;BME280;20865;43.312;27.152;2022-09-09T08:16:42;100536.06;;;33.85;23.24
34658;BME280;20865;43.312;27.152;2022-09-09T08:19:10;100529.20;;;34.10;23.52
34658;BME280;20865;43.312;27.152;2022-09-09T08:21:39;100523.94;;;34.26;23.26
34658;BME280;20865;43.312;27.152;2022-09-09T08:24:08;100522.03;;;34.37;23.31
34658;BME280;20865;43.312;27.152;2022-09-09T08:26:42;100521.98;;;34.05;22.62
34658;BME280;20865;43.312;27.152;2022-09-09T08:29:10;100515.22;;;34.19;23.16
34658;BME280;20865;43.312;27.152;2022-09-09T08:31:48;100526.40;;;34.36;22.89
34658;BME280;20865;43.312;27.152;2022-09-09T08:34:17;100516.78;;;34.17;22.86
34658;BME280;20865;43.312;27.152;2022-09-09T08:36:49;100524.45;;;33.85;23.13
34658;BME280;20865;43.312;27.152;2022-09-09T08:39:19;100525.25;;;33.46;23.48
34658;BME280;20865;43.312;27.152;2022-09-09T08:42:11;100524.23;;;33.42;23.40
34658;BME280;20865;43.312;27.152;2022-09-09T08:53:02;100529.25;;;33.77;23.31
34658;BME280;20865;43.312;27.152;2022-09-09T08:58:32;100534.02;;;34.49;23.52
34658;BME280;20865;43.312;27.152;2022-09-09T09:07:09;100525.92;;;35.12;23.28
34658;BME280;20865;43.312;27.152;2022-09-09T09:12:25;100527.77;;;34.72;22.15
34658;BME280;20865;43.312;27.152;2022-09-09T09:14:53;100524.09;;;35.08;22.43
34658;BME280;20865;43.312;27.152;2022-09-09T09:17:25;100526.03;;;34.93;22.01
34658;BME280;20865;43.312;27.152;2022-09-09T09:19:54;100525.42;;;35.29;23.38
34658;BME280;20865;43.312;27.152;2022-09-09T09:22:34;100520.91;;;35.57;22.67
34658;BME280;20865;43.312;27.152;2022-09-09T09:25:21;100513.77;;;35.75;22.12
34658;BME280;20865;43.312;27.152;2022-09-09T09:30:55;100510.63;;;36.03;21.60
34658;BME280;20865;43.312;27.152;2022-09-09T09:33:24;100494.05;;;36.05;20.71
34658;BME280;20865;43.312;27.152;2022-09-09T09:35:51;100499.09;;;36.12;21.39
34658;BME280;20865;43.312;27.152;2022-09-09T09:38:26;100489.63;;;36.24;21.71
34658;BME280;20865;43.312;27.152;2022-09-09T09:40:55;100493.47;;;35.75;20.96
34658;BME280;20865;43.312;27.152;2022-09-09T09:43:35;100501.95;;;35.67;21.29
34658;BME280;20865;43.312;27.152;2022-09-09T09:46:19;100480.59;;;35.91;21.78
34658;BME280;20865;43.312;27.152;2022-09-09T09:48:37;100484.22;;;35.61;21.29
34658;BME280;20865;43.312;27.152;2022-09-09T09:51:10;100466.30;;;35.07;20.89
34658;BME280;20865;43.312;27.152;2022-09-09T09:53:40;100470.89;;;34.83;21.47
34658;BME280;20865;43.312;27.152;2022-09-09T09:56:12;100460.89;;;34.99;21.38
34658;BME280;20865;43.312;27.152;2022-09-09T10:01:24;100451.55;;;35.18;21.18
34658;BME280;20865;43.312;27.152;2022-09-09T10:03:57;100445.95;;;35.11;21.11
34658;BME280;20865;43.312;27.152;2022-09-09T10:06:31;100442.11;;;35.58;21.40
34658;BME280;20865;43.312;27.152;2022-09-09T10:09:00;100441.61;;;35.65;20.77
34658;BME280;20865;43.312;27.152;2022-09-09T10:11:52;100448.48;;;35.75;20.48
34658;BME280;20865;43.312;27.152;2022-09-09T10:14:30;100439.48;;;35.97;21.26
34658;BME280;20865;43.312;27.152;2022-09-09T10:17:06;100447.67;;;36.06;20.63
34658;BME280;20865;43.312;27.152;2022-09-09T10:19:34;100455.36;;;35.62;19.82
34658;BME280;20865;43.312;27.152;2022-09-09T10:22:26;100447.25;;;35.91;19.53
34658;BME280;20865;43.312;27.152;2022-09-09T10:36:24;100443.95;;;36.22;20.28
34658;BME280;20865;43.312;27.152;2022-09-09T10:39:52;100446.21;;;36.16;19.65
34658;BME280;20865;43.312;27.152;2022-09-09T10:41:51;100443.95;;;36.09;19.63
34658;BME280;20865;43.312;27.152;2022-09-09T10:47:41;100438.41;;;36.29;20.26
34658;BME280;20865;43.312;27.152;2022-09-09T10:56:07;100435.59;;;36.53;19.64
34658;BME280;20865;43.312;27.152;2022-09-09T11:01:31;100439.56;;;36.55;19.96
34658;BME280;20865;43.312;27.152;2022-09-09T11:04:01;100436.56;;;36.69;21.22
34658;BME280;20865;43.312;27.152;2022-09-09T11:06:32;100422.43;;;36.71;19.90
34658;BME280;20865;43.312;27.152;2022-09-09T11:09:01;100429.41;;;36.51;20.20
34658;BME280;20865;43.312;27.152;2022-09-09T11:11:42;100413.69;;;36.10;20.51
34658;BME280;20865;43.312;27.152;2022-09-09T11:14:30;100413.37;;;36.09;21.22
34658;BME280;20865;43.312;27.152;2022-09-09T11:17:22;100410.36;;;36.48;20.78
34658;BME280;20865;43.312;27.152;2022-09-09T11:19:49;100420.89;;;36.42;20.91
34658;BME280;20865;43.312;27.152;2022-09-09T11:25:08;100414.57;;;36.24;20.94
34658;BME280;20865;43.312;27.152;2022-09-09T11:39:01;100408.30;;;36.99;21.21
34658;BME280;20865;43.312;27.152;2022-09-09T11:41:32;100395.25;;;36.86;20.85
34658;BME280;20865;43.312;27.152;2022-09-09T11:43:57;100396.22;;;36.89;21.53
34658;BME280;20865;43.312;27.152;2022-09-09T11:46:33;100398.04;;;36.86;22.13
34658;BME280;20865;43.312;27.152;2022-09-09T11:49:02;100394.19;;;37.01;20.89
34658;BME280;20865;43.312;27.152;2022-09-09T11:51:31;100397.55;;;37.23;20.89
34658;BME280;20865;43.312;27.152;2022-09-09T11:54:28;100384.74;;;36.88;20.62
34658;BME280;20865;43.312;27.152;2022-09-09T11:56:56;100382.32;;;36.63;20.82
34658;BME280;20865;43.312;27.152;2022-09-09T11:59:26;100389.63;;;36.07;20.86
34658;BME280;20865;43.312;27.152;2022-09-09T12:02:08;100388.60;;;36.34;20.96
34658;BME280;20865;43.312;27.152;2022-09-09T12:04:35;100389.56;;;36.37;20.72
34658;BME280;20865;43.312;27.152;2022-09-09T12:14:56;100379.30;;;36.71;20.37
34658;BME280;20865;43.312;27.152;2022-09-09T12:17:28;100367.64;;;36.45;19.73
34658;BME280;20865;43.312;27.152;2022-09-09T12:20:09;100356.55;;;36.52;20.11
34658;BME280;20865;43.312;27.152;2022-09-09T12:25:23;100368.56;;;36.15;20.03
34658;BME280;20865;43.312;27.152;2022-09-09T12:33:45;100351.45;;;36.05;19.74
34658;BME280;20865;43.312;27.152;2022-09-09T12:36:21;100353.08;;;36.10;20.29
34658;BME280;20865;43.312;27.152;2022-09-09T12:38:44;100343.55;;;36.15;19.27
34658;BME280;20865;43.312;27.152;2022-09-09T12:41:23;100335.03;;;36.23;19.58
34658;BME280;20865;43.312;27.152;2022-09-09T12:43:51;100349.76;;;36.37;20.26
34658;BME280;20865;43.312;27.152;2022-09-09T12:46:26;100344.02;;;35.94;20.34
34658;BME280;20865;43.312;27.152;2022-09-09T12:48:53;100342.09;;;35.95;20.12
34658;BME280;20865;43.312;27.152;2022-09-09T12:51:33;100334.78;;;35.74;20.28
34658;BME280;20865;43.312;27.152;2022-09-09T12:53:58;100328.06;;;36.10;20.28
34658;BME280;20865;43.312;27.152;2022-09-09T12:56:29;100328.06;;;36.10;20.28
34658;BME280;20865;43.312;27.152;2022-09-09T12:58:57;100322.03;;;35.99;19.72
34658;BME280;20865;43.312;27.152;2022-09-09T13:01:28;100321.67;;;35.78;20.14
34658;BME280;20865;43.312;27.152;2022-09-09T13:03:56;100318.05;;;35.78;19.96
34658;BME280;20865;43.312;27.152;2022-09-09T13:06:28;100313.97;;;35.81;20.47
34658;BME280;20865;43.312;27.152;2022-09-09T13:08:59;100311.87;;;35.52;20.52
34658;BME280;20865;43.312;27.152;2022-09-09T13:11:30;100309.86;;;35.63;20.48
34658;BME280;20865;43.312;27.152;2022-09-09T13:13:58;100305.38;;;35.62;20.29
34658;BME280;20865;43.312;27.152;2022-09-09T13:16:31;100310.42;;;35.45;19.83
34658;BME280;20865;43.312;27.152;2022-09-09T13:19:07;100303.48;;;35.69;20.25
34658;BME280;20865;43.312;27.152;2022-09-09T13:21:36;100299.53;;;35.68;19.82
34658;BME280;20865;43.312;27.152;2022-09-09T13:24:29;100300.81;;;36.09;19.66
34658;BME280;20865;43.312;27.152;2022-09-09T13:27:03;100302.34;;;35.94;19.51
34658;BME280;20865;43.312;27.152;2022-09-09T13:29:30;100293.08;;;35.30;19.36
34658;BME280;20865;43.312;27.152;2022-09-09T13:32:05;100291.13;;;35.85;19.34
34658;BME280;20865;43.312;27.152;2022-09-09T13:34:35;100300.05;;;35.61;19.72
34658;BME280;20865;43.312;27.152;2022-09-09T13:37:05;100293.40;;;35.31;19.56
34658;BME280;20865;43.312;27.152;2022-09-09T13:39:37;100286.06;;;35.65;19.75
34658;BME280;20865;43.312;27.152;2022-09-09T13:42:05;100288.95;;;35.74;19.36
34658;BME280;20865;43.312;27.152;2022-09-09T13:44:38;100285.55;;;35.72;19.33
34658;BME280;20865;43.312;27.152;2022-09-09T13:47:26;100285.63;;;35.61;19.16
34658;BME280;20865;43.312;27.152;2022-09-09T13:49:51;100286.15;;;35.54;19.12
34658;BME280;20865;43.312;27.152;2022-09-09T13:52:19;100296.98;;;35.79;19.67
34658;BME280;20865;43.312;27.152;2022-09-09T13:54:49;100290.36;;;35.87;19.58
34658;BME280;20865;43.312;27.152;2022-09-09T13:57:24;100300.16;;;35.70;19.51
34658;BME280;20865;43.312;27.152;2022-09-09T13:59:53;100288.65;;;35.79;19.38
34658;BME280;20865;43.312;27.152;2022-09-09T14:02:24;100289.55;;;35.56;19.31
34658;BME280;20865;43.312;27.152;2022-09-09T14:04:51;100290.73;;;35.51;21.28
34658;BME280;20865;43.312;27.152;2022-09-09T14:07:21;100291.80;;;35.57;22.14
34658;BME280;20865;43.312;27.152;2022-09-09T14:09:49;100284.34;;;35.33;22.69
34658;BME280;20865;43.312;27.152;2022-09-09T14:12:18;100287.12;;;35.33;22.90
34658;BME280;20865;43.312;27.152;2022-09-09T14:14:46;100289.48;;;35.36;22.73
34658;BME280;20865;43.312;27.152;2022-09-09T14:17:14;100285.58;;;35.24;23.16
34658;BME280;20865;43.312;27.152;2022-09-09T14:19:41;100283.22;;;35.21;23.55
34658;BME280;20865;43.312;27.152;2022-09-09T14:22:09;100281.56;;;35.33;23.81
34658;BME280;20865;43.312;27.152;2022-09-09T14:24:37;100275.02;;;35.23;24.42
34658;BME280;20865;43.312;27.152;2022-09-09T14:27:04;100281.27;;;34.80;24.73
34658;BME280;20865;43.312;27.152;2022-09-09T14:29:32;100274.00;;;34.96;24.33
34658;BME280;20865;43.312;27.152;2022-09-09T14:32:00;100274.83;;;35.01;24.54
34658;BME280;20865;43.312;27.152;2022-09-09T14:34:28;100267.29;;;35.12;24.70
34658;BME280;20865;43.312;27.152;2022-09-09T14:36:55;100269.77;;;34.83;24.67
34658;BME280;20865;43.312;27.152;2022-09-09T14:39:23;100266.50;;;34.66;25.25
34658;BME280;20865;43.312;27.152;2022-09-09T14:41:50;100273.38;;;34.77;25.22
34658;BME280;20865;43.312;27.152;2022-09-09T14:44:18;100272.36;;;34.67;25.26
34658;BME280;20865;43.312;27.152;2022-09-09T14:46:46;100258.81;;;34.40;25.80
34658;BME280;20865;43.312;27.152;2022-09-09T14:49:14;100260.02;;;34.59;25.73
34658;BME280;20865;43.312;27.152;2022-09-09T14:51:41;100260.78;;;34.46;25.66
34658;BME280;20865;43.312;27.152;2022-09-09T14:54:09;100255.32;;;34.42;25.50
34658;BME280;20865;43.312;27.152;2022-09-09T14:56:37;100258.98;;;34.60;25.31